createdAt,value
2022-09-10T00:01:43.835Z,47.21
2022-09-10T00:04:16.769Z,47.09
2022-09-10T00:06:52.673Z,47.00
2022-09-10T00:09:25.798Z,46.94
2022-09-10T00:11:58.730Z,46.89
2022-09-10T00:14:31.770Z,46.82
2022-09-10T00:17:04.751Z,47.00
2022-09-10T00:19:40.746Z,46.84
2022-09-10T00:22:13.813Z,46.86
2022-09-10T00:24:46.793Z,46.93
2022-09-10T00:27:19.808Z,47.21
2022-09-10T00:29:52.778Z,47.00
2022-09-10T00:32:25.597Z,47.03
2022-09-10T00:34:58.858Z,47.05
2022-09-10T00:37:32.805Z,47.07
2022-09-10T00:40:05.906Z,47.19
2022-09-10T00:42:38.785Z,47.10
2022-09-10T00:45:11.835Z,47.22
2022-09-10T00:47:44.787Z,47.00
2022-09-10T00:50:17.769Z,46.97
2022-09-10T00:52:50.801Z,47.04
2022-09-10T00:55:23.879Z,46.94
2022-09-10T00:57:56.869Z,46.95
2022-09-10T01:00:29.795Z,46.89
2022-09-10T01:03:02.837Z,46.83
2022-09-10T01:05:35.806Z,46.92
2022-09-10T01:08:08.790Z,46.99
2022-09-10T01:10:41.600Z,46.92
2022-09-10T01:13:14.896Z,46.90
2022-09-10T01:15:51.764Z,46.84
2022-09-10T01:18:24.899Z,46.80
2022-09-10T01:20:57.944Z,46.87
2022-09-10T01:23:30.817Z,46.80
2022-09-10T01:26:03.894Z,46.92
2022-09-10T01:28:36.926Z,46.91
2022-09-10T01:31:09.838Z,46.89
2022-09-10T01:33:42.843Z,46.84
2022-09-10T01:36:15.891Z,46.81
2022-09-10T01:38:48.844Z,46.71
2022-09-10T01:41:21.932Z,46.78
2022-09-10T01:43:54.963Z,46.70
2022-09-10T01:46:27.872Z,46.97
2022-09-10T01:49:00.931Z,46.90
2022-09-10T01:51:33.858Z,46.84
2022-09-10T01:54:06.756Z,46.59
2022-09-10T01:56:39.943Z,46.68
2022-09-10T01:59:12.977Z,46.66
2022-09-10T02:01:45.920Z,46.68
2022-09-10T02:04:19.071Z,46.55
2022-09-10T02:06:52.907Z,46.54
2022-09-10T02:09:25.960Z,46.53
2022-09-10T02:11:58.885Z,46.53
2022-09-10T02:14:31.911Z,46.54
2022-09-10T02:17:04.998Z,46.53
2022-09-10T02:19:37.993Z,46.54
2022-09-10T02:22:10.910Z,46.51
2022-09-10T02:24:43.987Z,46.46
2022-09-10T02:27:16.907Z,46.45
2022-09-10T02:29:49.986Z,46.48
2022-09-10T02:32:23.009Z,46.46
2022-09-10T02:34:55.946Z,46.43
2022-09-10T02:37:30.032Z,46.60
2022-09-10T02:40:02.759Z,46.59
2022-09-10T02:42:35.970Z,46.51
2022-09-10T02:45:23.019Z,46.56
2022-09-10T02:47:55.956Z,46.54
2022-09-10T02:50:28.921Z,46.56
2022-09-10T02:55:51.985Z,46.63
2022-09-10T02:58:25.065Z,46.64
2022-09-10T03:00:58.092Z,46.81
2022-09-10T03:03:31.006Z,46.72
2022-09-10T03:06:03.882Z,46.96
2022-09-10T03:08:37.053Z,46.77
2022-09-10T03:11:09.968Z,46.85
2022-09-10T03:13:43.004Z,46.71
2022-09-10T03:16:16.069Z,46.95
2022-09-10T03:18:52.904Z,46.71
2022-09-10T03:21:26.114Z,46.75
2022-09-10T03:23:59.018Z,46.68
2022-09-10T03:26:32.010Z,46.71
2022-09-10T03:29:05.013Z,46.79
2022-09-10T03:31:38.187Z,46.95
2022-09-10T03:34:11.048Z,47.08
2022-09-10T03:36:44.109Z,47.11
2022-09-10T03:39:17.065Z,47.07
2022-09-10T03:41:50.118Z,47.15
2022-09-10T03:44:23.070Z,47.08
2022-09-10T03:47:00.021Z,47.11
2022-09-10T03:49:33.123Z,47.04
2022-09-10T03:52:06.069Z,47.25
2022-09-10T03:54:39.124Z,47.21
2022-09-10T03:57:12.087Z,47.06
2022-09-10T03:59:45.057Z,47.20
2022-09-10T04:02:18.163Z,47.06
2022-09-10T04:04:51.152Z,46.91
2022-09-10T04:07:24.066Z,47.21
2022-09-10T04:09:57.225Z,47.24
2022-09-10T04:12:30.063Z,47.23
2022-09-10T04:15:03.125Z,46.86
2022-09-10T04:17:36.275Z,47.04
2022-09-10T04:20:10.104Z,47.02
2022-09-10T04:22:43.198Z,47.17
2022-09-10T04:25:16.120Z,47.20
2022-09-10T04:27:48.929Z,47.14
2022-09-10T04:30:22.148Z,47.20
2022-09-10T04:32:55.124Z,46.87
2022-09-10T04:35:28.095Z,47.15
2022-09-10T04:38:01.147Z,47.02
2022-09-10T04:40:33.812Z,47.02
2022-09-10T04:43:07.254Z,46.95
2022-09-10T04:45:41.330Z,47.19
2022-09-10T04:48:13.844Z,47.12
2022-09-10T04:51:12.254Z,47.08
2022-09-10T04:53:20.208Z,47.31
2022-09-10T04:55:53.204Z,47.32
2022-09-10T04:58:26.232Z,47.37
2022-09-10T05:00:59.178Z,47.13
2022-09-10T05:03:32.274Z,47.08
2022-09-10T05:06:05.144Z,47.17
2022-09-10T05:08:38.492Z,47.14
2022-09-10T05:11:11.161Z,47.24
2022-09-10T05:13:44.244Z,47.22
2022-09-10T05:16:18.234Z,47.29
2022-09-10T05:18:51.251Z,47.42
2022-09-10T05:21:24.189Z,47.20
2022-09-10T05:23:57.242Z,47.26
2022-09-10T05:26:30.168Z,47.30
2022-09-10T05:29:03.237Z,47.30
2022-09-10T05:31:36.261Z,47.36
2022-09-10T05:34:09.252Z,47.52
2022-09-10T05:36:42.275Z,47.53
2022-09-10T05:39:15.274Z,47.48
2022-09-10T05:41:48.313Z,47.55
2022-09-10T05:44:21.206Z,47.46
2022-09-10T05:46:54.185Z,47.37
2022-09-10T05:49:27.331Z,47.45
2022-09-10T05:52:00.287Z,47.56
2022-09-10T05:54:33.334Z,47.44
2022-09-10T05:57:06.323Z,47.46
2022-09-10T05:59:39.267Z,47.44
2022-09-10T06:02:13.343Z,47.46
2022-09-10T06:04:46.336Z,47.55
2022-09-10T06:07:19.244Z,47.55
2022-09-10T06:09:52.296Z,47.52
2022-09-10T06:12:25.250Z,47.61
2022-09-10T06:14:58.330Z,47.51
2022-09-10T06:17:31.265Z,47.53
2022-09-10T06:20:04.353Z,47.52
2022-09-10T06:22:40.041Z,47.62
2022-09-10T06:25:13.231Z,47.47
2022-09-10T06:27:46.329Z,47.35
2022-09-10T06:30:19.386Z,47.21
2022-09-10T06:32:52.281Z,47.43
2022-09-10T06:35:25.279Z,47.28
2022-09-10T06:37:58.438Z,47.37
2022-09-10T06:40:32.275Z,47.23
2022-09-10T06:43:05.341Z,47.22
2022-09-10T06:45:38.143Z,47.23
2022-09-10T06:50:44.218Z,47.28
2022-09-10T06:53:17.098Z,47.42
2022-09-10T06:55:51.251Z,47.35
2022-09-10T06:58:24.244Z,47.23
2022-09-10T07:00:57.641Z,47.30
2022-09-10T07:03:31.309Z,47.39
2022-09-10T07:06:04.476Z,47.41
2022-09-10T07:08:37.368Z,47.37
2022-09-10T07:11:10.408Z,47.52
2022-09-10T07:13:43.303Z,47.51
2022-09-10T07:16:16.267Z,47.30
2022-09-10T07:18:49.377Z,47.25
2022-09-10T07:21:22.102Z,47.36
2022-09-10T07:23:55.212Z,47.45
2022-09-10T07:26:28.093Z,47.40
2022-09-10T07:29:01.327Z,47.39
2022-09-10T07:31:34.365Z,47.60
2022-09-10T07:34:07.377Z,47.43
2022-09-10T07:36:40.377Z,47.38
2022-09-10T07:39:13.438Z,47.61
2022-09-10T07:41:46.434Z,47.44
2022-09-10T07:44:19.447Z,47.43
2022-09-10T07:46:52.366Z,47.49
2022-09-10T07:49:25.311Z,47.59
2022-09-10T07:52:00.115Z,47.64
2022-09-10T07:54:31.370Z,47.64
2022-09-10T07:57:07.083Z,48.04
2022-09-10T07:59:40.390Z,48.08
2022-09-10T08:02:13.553Z,47.80
2022-09-10T08:04:46.270Z,47.73
2022-09-10T08:07:19.422Z,48.04
2022-09-10T08:09:52.362Z,48.16
2022-09-10T08:12:25.250Z,48.15
2022-09-10T08:14:58.200Z,48.12
2022-09-10T08:17:31.155Z,48.15
2022-09-10T08:20:04.468Z,48.05
2022-09-10T08:22:37.188Z,48.03
2022-09-10T08:25:10.484Z,48.02
2022-09-10T08:27:43.474Z,47.94
2022-09-10T08:30:16.446Z,48.00
2022-09-10T08:32:49.499Z,47.90
2022-09-10T08:35:22.293Z,47.91
2022-09-10T08:37:55.169Z,47.94
2022-09-10T08:40:28.539Z,47.87
2022-09-10T08:43:01.490Z,47.87
2022-09-10T08:45:34.486Z,47.86
2022-09-10T08:48:07.315Z,47.84
2022-09-10T08:50:40.236Z,47.85
2022-09-10T08:53:13.588Z,47.93
2022-09-10T08:56:00.296Z,47.91
2022-09-10T08:58:33.167Z,47.95
2022-09-10T09:01:06.649Z,48.15
2022-09-10T09:03:39.490Z,48.55
2022-09-10T09:06:12.542Z,48.54
2022-09-10T09:08:45.593Z,48.66
2022-09-10T09:11:18.279Z,48.79
2022-09-10T09:13:51.547Z,48.79
2022-09-10T09:16:24.228Z,48.77
2022-09-10T09:18:57.482Z,48.77
2022-09-10T09:21:30.266Z,48.85
2022-09-10T09:24:13.225Z,48.55
2022-09-10T09:26:36.382Z,48.46
2022-09-10T09:29:09.371Z,48.63
2022-09-10T09:31:42.537Z,48.81
2022-09-10T09:34:15.359Z,48.77
2022-09-10T09:36:48.422Z,48.67
2022-09-10T09:39:25.004Z,48.76
2022-09-10T09:41:54.426Z,48.77
2022-09-10T09:44:27.543Z,48.61
2022-09-10T09:47:00.358Z,48.63
2022-09-10T09:49:33.548Z,48.44
2022-09-10T09:52:06.449Z,48.35
2022-09-10T09:55:09.986Z,48.31
2022-09-10T09:57:12.543Z,48.29
2022-09-10T09:59:45.529Z,48.22
2022-09-10T10:02:18.416Z,48.17
2022-09-10T10:04:51.338Z,48.20
2022-09-10T10:07:24.403Z,48.17
2022-09-10T10:09:57.418Z,48.10
2022-09-10T10:12:30.470Z,47.96
2022-09-10T10:15:03.384Z,47.97
2022-09-10T10:17:36.440Z,47.95
2022-09-10T10:20:09.771Z,48.03
2022-09-10T10:22:42.659Z,47.82
2022-09-10T10:25:15.652Z,47.79
2022-09-10T10:27:48.471Z,47.72
2022-09-10T10:30:21.312Z,47.80
2022-09-10T10:32:54.464Z,47.81
2022-09-10T10:35:27.302Z,47.71
2022-09-10T10:38:00.698Z,47.90
2022-09-10T10:40:36.467Z,47.83
2022-09-10T10:43:09.505Z,47.86
2022-09-10T10:45:42.482Z,47.80
2022-09-10T10:48:15.697Z,47.77
2022-09-10T10:50:52.657Z,47.75
2022-09-10T10:53:21.647Z,47.74
2022-09-10T10:55:54.663Z,47.77
2022-09-10T10:58:27.684Z,47.75
2022-09-10T11:01:00.677Z,47.71
2022-09-10T11:03:33.352Z,47.73
2022-09-10T11:06:06.484Z,47.67
2022-09-10T11:08:39.649Z,47.75
2022-09-10T11:11:12.514Z,47.71
2022-09-10T11:13:45.708Z,47.72
2022-09-10T11:16:18.528Z,47.78
2022-09-10T11:18:51.399Z,47.79
2022-09-10T11:21:24.654Z,47.46
2022-09-10T11:23:57.744Z,47.50
2022-09-10T11:26:30.700Z,47.49
2022-09-10T11:29:03.701Z,47.48
2022-09-10T11:31:36.713Z,47.49
2022-09-10T11:34:09.691Z,47.44
2022-09-10T11:36:42.818Z,47.43
2022-09-10T11:39:15.724Z,47.41
2022-09-10T11:41:48.780Z,47.43
2022-09-10T11:44:21.795Z,47.41
2022-09-10T11:46:54.827Z,47.35
2022-09-10T11:49:27.658Z,47.30
2022-09-10T11:52:14.789Z,47.28
2022-09-10T11:54:47.708Z,47.21
2022-09-10T11:57:20.853Z,47.14
2022-09-10T11:59:53.846Z,47.09
2022-09-10T12:02:26.766Z,47.04
2022-09-10T12:04:59.833Z,46.96
2022-09-10T12:07:32.730Z,47.02
2022-09-10T12:10:05.712Z,47.08
2022-09-10T12:12:38.790Z,47.04
2022-09-10T12:15:11.747Z,46.99
2022-09-10T12:17:44.827Z,46.88
2022-09-10T12:20:17.786Z,46.84
2022-09-10T12:22:50.757Z,46.83
2022-09-10T12:25:23.834Z,46.74
2022-09-10T12:27:56.713Z,46.71
2022-09-10T12:30:29.752Z,46.87
2022-09-10T12:33:02.828Z,47.09
2022-09-10T12:35:35.478Z,47.24
2022-09-10T12:38:08.599Z,47.31
2022-09-10T12:40:41.625Z,47.29
2022-09-10T12:43:14.538Z,47.28
2022-09-10T12:45:47.616Z,47.19
2022-09-10T12:48:25.068Z,47.17
2022-09-10T12:50:53.620Z,46.96
2022-09-10T12:53:26.728Z,47.08
2022-09-10T12:55:59.714Z,47.19
2022-09-10T12:58:32.640Z,47.19
2022-09-10T13:01:05.704Z,47.18
2022-09-10T13:03:38.749Z,47.03
2022-09-10T13:06:13.524Z,46.99
2022-09-10T13:08:46.687Z,47.07
2022-09-10T13:11:19.789Z,47.03
2022-09-10T13:13:52.664Z,46.93
2022-09-10T13:16:25.742Z,47.02
2022-09-10T13:18:58.825Z,46.96
2022-09-10T13:21:31.543Z,46.89
2022-09-10T13:24:04.697Z,46.79
2022-09-10T13:26:37.712Z,46.89
2022-09-10T13:29:10.740Z,46.92
2022-09-10T13:31:43.600Z,46.73
2022-09-10T13:34:16.561Z,46.72
2022-09-10T13:36:49.600Z,46.72
2022-09-10T13:39:22.554Z,46.74
2022-09-10T13:41:55.572Z,46.64
2022-09-10T13:44:28.601Z,46.63
2022-09-10T13:47:01.950Z,46.54
2022-09-10T13:49:34.949Z,46.53
2022-09-10T13:52:07.948Z,46.52
2022-09-10T13:54:40.886Z,46.51
2022-09-10T13:57:13.870Z,46.54
2022-09-10T13:59:46.799Z,46.55
2022-09-10T14:02:19.892Z,46.52
2022-09-10T14:04:52.798Z,46.40
2022-09-10T14:07:25.703Z,46.35
2022-09-10T14:09:58.629Z,46.38
2022-09-10T14:12:31.625Z,46.42
2022-09-10T14:15:04.986Z,46.33
2022-09-10T14:17:37.798Z,46.33
2022-09-10T14:20:10.921Z,46.29
2022-09-10T14:22:43.978Z,46.30
2022-09-10T14:25:16.629Z,46.21
2022-09-10T14:27:54.733Z,46.19
2022-09-10T14:30:22.770Z,46.19
2022-09-10T14:32:58.654Z,46.11
2022-09-10T14:35:31.659Z,46.12
2022-09-10T14:38:04.822Z,46.18
2022-09-10T14:40:37.808Z,46.41
2022-09-10T14:43:10.775Z,46.40
2022-09-10T14:45:44.055Z,46.47
2022-09-10T14:48:16.688Z,46.40
2022-09-10T14:50:49.728Z,46.41
2022-09-10T14:53:22.850Z,46.38
2022-09-10T14:55:56.086Z,46.34
2022-09-10T14:58:28.825Z,46.31
2022-09-10T15:01:01.869Z,46.23
2022-09-10T15:03:34.860Z,46.10
2022-09-10T15:06:07.941Z,46.17
2022-09-10T15:08:41.072Z,46.06
2022-09-10T15:11:13.718Z,46.03
2022-09-10T15:13:46.865Z,45.94
2022-09-10T15:16:19.850Z,45.95
2022-09-10T15:18:52.878Z,45.86
2022-09-10T15:21:25.869Z,45.83
2022-09-10T15:23:58.982Z,45.69
2022-09-10T15:26:31.905Z,45.80
2022-09-10T15:29:04.807Z,45.87
2022-09-10T15:31:37.965Z,45.76
2022-09-10T15:34:10.872Z,45.79
2022-09-10T15:36:43.803Z,45.87
2022-09-10T15:39:16.838Z,45.90
2022-09-10T15:41:49.867Z,46.03
2022-09-10T15:44:23.096Z,46.04
2022-09-10T15:46:55.867Z,46.12
2022-09-10T15:49:29.049Z,46.16
2022-09-10T15:52:02.067Z,46.21
2022-09-10T15:54:34.755Z,46.01
2022-09-10T15:57:08.147Z,46.18
2022-09-10T15:59:41.105Z,46.15
2022-09-10T16:02:14.152Z,45.76
2022-09-10T16:04:47.060Z,46.08
2022-09-10T16:07:20.074Z,46.03
2022-09-10T16:09:53.134Z,45.99
2022-09-10T16:12:40.116Z,46.02
2022-09-10T16:15:13.203Z,46.04
2022-09-10T16:17:50.067Z,45.85
2022-09-10T16:20:22.806Z,45.80
2022-09-10T16:22:55.920Z,45.91
2022-09-10T16:25:29.087Z,45.77
2022-09-10T16:28:02.087Z,45.08
2022-09-10T16:30:34.939Z,45.42
2022-09-10T16:33:08.138Z,45.80
2022-09-10T16:35:41.179Z,45.82
2022-09-10T16:38:14.192Z,45.82
2022-09-10T16:40:47.172Z,45.83
2022-09-10T16:43:20.208Z,45.94
2022-09-10T16:45:53.151Z,45.90
2022-09-10T16:48:25.870Z,45.91
2022-09-10T16:50:59.184Z,45.91
2022-09-10T16:53:32.109Z,45.97
2022-09-10T16:56:04.980Z,45.81
2022-09-10T16:58:38.329Z,45.96
2022-09-10T17:01:11.280Z,45.93
2022-09-10T17:03:44.226Z,45.93
2022-09-10T17:06:16.962Z,45.85
2022-09-10T17:08:50.100Z,46.03
2022-09-10T17:11:24.808Z,46.00
2022-09-10T17:13:58.053Z,46.06
2022-09-10T17:16:30.874Z,46.11
2022-09-10T17:19:03.938Z,46.00
2022-09-10T17:21:37.141Z,46.09
2022-09-10T17:24:10.256Z,45.95
2022-09-10T17:26:43.198Z,46.10
2022-09-10T17:29:16.153Z,46.00
2022-09-10T17:31:48.984Z,46.11
2022-09-10T17:34:22.216Z,46.08
2022-09-10T17:36:55.054Z,46.06
2022-09-10T17:39:27.928Z,46.05
2022-09-10T17:42:01.084Z,46.06
2022-09-10T17:44:33.912Z,45.93
2022-09-10T17:47:07.040Z,46.05
2022-09-10T17:49:40.115Z,45.92
2022-09-10T17:52:12.929Z,46.06
2022-09-10T17:54:45.966Z,46.08
2022-09-10T17:57:19.124Z,45.86
2022-09-10T17:59:52.087Z,46.06
2022-09-10T18:02:25.245Z,45.99
2022-09-10T18:04:58.334Z,46.09
2022-09-10T18:07:31.292Z,46.22
2022-09-10T18:10:04.314Z,46.24
2022-09-10T18:12:37.340Z,46.14
2022-09-10T18:15:10.289Z,46.22
2022-09-10T18:17:43.297Z,46.34
2022-09-10T18:20:16.330Z,46.29
2022-09-10T18:22:49.284Z,46.39
2022-09-10T18:25:22.015Z,46.35
2022-09-10T18:27:55.127Z,46.47
2022-09-10T18:30:28.120Z,46.44
2022-09-10T18:33:01.089Z,46.48
2022-09-10T18:35:34.272Z,46.52
2022-09-10T18:38:07.165Z,46.45
2022-09-10T18:40:39.988Z,46.56
2022-09-10T18:43:13.380Z,46.59
2022-09-10T18:45:46.322Z,46.59
2022-09-10T18:48:19.306Z,46.58
2022-09-10T18:50:52.172Z,46.57
2022-09-10T18:53:25.377Z,46.77
2022-09-10T18:55:58.308Z,46.84
2022-09-10T18:58:31.035Z,46.77
2022-09-10T19:01:04.131Z,46.72
2022-09-10T19:03:37.383Z,46.80
2022-09-10T19:06:10.181Z,46.88
2022-09-10T19:08:43.382Z,46.81
2022-09-10T19:11:16.333Z,46.75
2022-09-10T19:13:49.204Z,46.71
2022-09-10T19:16:25.294Z,46.69
2022-09-10T19:18:58.410Z,46.73
2022-09-10T19:21:31.381Z,46.84
2022-09-10T19:24:04.452Z,46.74
2022-09-10T19:26:37.433Z,46.85
2022-09-10T19:29:10.394Z,46.83
2022-09-10T19:31:57.300Z,46.90
2022-09-10T19:34:30.448Z,46.86
2022-09-10T19:37:03.437Z,46.91
2022-09-10T19:39:36.490Z,46.93
2022-09-10T19:42:10.440Z,46.99
2022-09-10T19:44:43.372Z,46.94
2022-09-10T19:47:16.487Z,47.03
2022-09-10T19:50:03.405Z,47.12
2022-09-10T19:52:36.428Z,47.09
2022-09-10T19:55:09.443Z,47.14
2022-09-10T19:57:42.398Z,47.00
2022-09-10T20:00:36.261Z,47.14
2022-09-10T20:02:48.211Z,47.05
2022-09-10T20:05:21.102Z,47.51
2022-09-10T20:07:54.189Z,48.40
2022-09-10T20:10:27.374Z,47.77
2022-09-10T20:13:00.175Z,47.93
2022-09-10T20:15:33.105Z,47.63
2022-09-10T20:18:06.554Z,47.54
2022-09-10T20:20:39.287Z,47.54
2022-09-10T20:23:12.429Z,47.39
2022-09-10T20:25:45.467Z,47.45
2022-09-10T20:28:18.451Z,47.43
2022-09-10T20:30:51.567Z,47.32
2022-09-10T20:33:24.256Z,47.43
2022-09-10T20:35:57.321Z,47.33
2022-09-10T20:38:30.478Z,47.41
2022-09-10T20:41:03.524Z,47.62
2022-09-10T20:43:36.468Z,47.52
2022-09-10T20:46:09.578Z,47.44
2022-09-10T20:48:47.028Z,47.56
2022-09-10T20:51:15.514Z,47.42
2022-09-10T20:53:48.496Z,47.73
2022-09-10T20:56:21.541Z,47.61
2022-09-10T20:58:54.573Z,47.48
2022-09-10T21:01:27.634Z,47.55
2022-09-10T21:04:00.558Z,47.49
2022-09-10T21:06:33.514Z,47.53
2022-09-10T21:09:06.581Z,47.53
2022-09-10T21:11:39.553Z,47.58
2022-09-10T21:14:12.534Z,47.52
2022-09-10T21:16:45.512Z,47.56
2022-09-10T21:19:18.498Z,47.59
2022-09-10T21:21:51.583Z,47.77
2022-09-10T21:24:24.423Z,47.76
2022-09-10T21:26:57.563Z,47.62
2022-09-10T21:29:30.569Z,47.88
2022-09-10T21:32:03.606Z,47.71
2022-09-10T21:34:36.665Z,47.75
2022-09-10T21:37:09.527Z,47.68
2022-09-10T21:39:42.691Z,47.84
2022-09-10T21:42:18.467Z,47.77
2022-09-10T21:44:51.539Z,47.73
2022-09-10T21:47:24.613Z,47.65
2022-09-10T21:49:57.536Z,47.66
2022-09-10T21:52:36.472Z,47.63
2022-09-10T21:55:09.611Z,47.80
2022-09-10T21:57:42.647Z,47.82
2022-09-10T22:00:15.599Z,47.76
2022-09-10T22:02:48.763Z,47.96
2022-09-10T22:05:21.611Z,47.74
2022-09-10T22:07:54.689Z,47.70
2022-09-10T22:10:27.679Z,47.69
2022-09-10T22:13:00.559Z,48.11
2022-09-10T22:15:33.595Z,47.73
2022-09-10T22:18:06.641Z,47.71
2022-09-10T22:20:39.444Z,47.62
2022-09-10T22:23:12.636Z,47.64
2022-09-10T22:25:45.703Z,47.58
2022-09-10T22:28:18.593Z,47.63
2022-09-10T22:30:51.715Z,47.58
2022-09-10T22:33:24.684Z,47.63
2022-09-10T22:35:57.686Z,47.67
2022-09-10T22:38:30.590Z,47.54
2022-09-10T22:41:03.498Z,47.62
2022-09-10T22:43:36.689Z,47.68
2022-09-10T22:46:09.697Z,47.60
2022-09-10T22:48:42.912Z,47.68
2022-09-10T22:51:15.710Z,47.70
2022-09-10T22:53:48.751Z,47.79
2022-09-10T22:56:21.749Z,47.65
2022-09-10T22:58:54.670Z,47.72
2022-09-10T23:01:27.761Z,47.69
2022-09-10T23:04:00.704Z,47.64
2022-09-10T23:06:33.662Z,47.67
2022-09-10T23:09:06.740Z,47.83
2022-09-10T23:11:39.533Z,47.72
2022-09-10T23:14:12.471Z,47.72
2022-09-10T23:16:45.698Z,47.67
2022-09-10T23:19:18.777Z,47.77
2022-09-10T23:21:51.672Z,47.68
2022-09-10T23:24:24.565Z,47.74
2022-09-10T23:26:57.676Z,47.68
2022-09-10T23:29:30.722Z,47.61
2022-09-10T23:32:03.531Z,47.76
2022-09-10T23:34:36.726Z,47.70
2022-09-10T23:37:09.756Z,47.70
2022-09-10T23:39:42.748Z,47.67
2022-09-10T23:42:15.771Z,47.67
2022-09-10T23:44:48.710Z,47.63
2022-09-10T23:47:22.151Z,47.71
2022-09-10T23:49:55.763Z,47.81
2022-09-10T23:52:28.709Z,47.79
2022-09-10T23:55:01.805Z,47.63
2022-09-10T23:57:34.874Z,47.64
